Time;durP1;ratioP1;P1;durP2;ratioP2;P2;SDS_P1;SDS_P2;PMS_P1;PMS_P2;Temp;Humidity;BMP_temperature;BMP_pressure;BME280_temperature;BME280_humidity;BME280_pressure;Samples;Min_cycle;Max_cycle;Signal;HPM_P1;HPM_P2
2023/08/26 00:01:48;;;;;;;0.88;0.25;;;15.20;99.90;;;;;;4115191;28;20197;-84
2023/08/26 00:03:49;;;;;;;1.23;0.30;;;15.20;99.90;;;;;;4099505;29;20206;-84
2023/08/26 00:05:50;;;;;;;4.78;0.65;;;15.20;99.90;;;;;;4116454;28;20170;-84
2023/08/26 00:07:51;;;;;;;0.50;0.20;;;15.20;99.90;;;;;;4115225;28;20709;-84
2023/08/26 00:09:51;;;;;;;3.25;0.28;;;15.20;99.90;;;;;;4115013;28;20166;-84
2023/08/26 00:11:53;;;;;;;0.60;0.20;;;15.20;99.90;;;;;;4114853;28;20218;-84
2023/08/26 00:13:53;;;;;;;0.30;0.20;;;15.20;99.90;;;;;;4115410;28;20194;-84
2023/08/26 00:15:54;;;;;;;1.10;0.22;;;15.30;99.90;;;;;;4116386;28;20174;-84
2023/08/26 00:17:55;;;;;;;0.80;0.20;;;15.20;99.90;;;;;;4115217;28;20178;-84
2023/08/26 00:19:55;;;;;;;0.80;0.20;;;15.20;99.90;;;;;;4115045;28;20171;-84
2023/08/26 00:21:56;;;;;;;0.40;0.30;;;15.20;99.90;;;;;;4115066;28;20194;-84
2023/08/26 00:23:58;;;;;;;0.32;0.20;;;15.20;99.90;;;;;;4115115;28;20163;-84
2023/08/26 00:26:00;;;;;;;1.25;0.32;;;15.10;99.90;;;;;;4114990;28;20181;-84
2023/08/26 00:28:02;;;;;;;0.28;0.13;;;15.20;99.90;;;;;;4131192;28;20709;-83
2023/08/26 00:30:04;;;;;;;0.20;0.20;;;15.20;99.90;;;;;;4116156;28;20162;-83
2023/08/26 00:32:05;;;;;;;0.73;0.30;;;15.10;99.90;;;;;;4130675;28;20271;-84
2023/08/26 00:34:07;;;;;;;0.40;0.25;;;15.10;99.90;;;;;;4114799;28;20195;-83
2023/08/26 00:36:08;;;;;;;0.20;0.20;;;15.10;99.90;;;;;;4130808;28;20248;-83
2023/08/26 00:38:08;;;;;;;0.50;0.20;;;15.10;99.90;;;;;;4114710;28;20166;-84
2023/08/26 00:40:10;;;;;;;3.30;0.43;;;15.00;99.90;;;;;;4114630;28;20178;-84
2023/08/26 00:42:11;;;;;;;0.50;0.20;;;15.00;99.90;;;;;;4114310;28;20201;-83
2023/08/26 00:44:12;;;;;;;0.40;0.28;;;14.90;99.90;;;;;;4114727;28;20174;-83
2023/08/26 00:46:14;;;;;;;0.43;0.30;;;14.90;99.90;;;;;;4114748;28;20686;-83
2023/08/26 00:48:15;;;;;;;0.70;0.20;;;14.90;99.90;;;;;;4114784;28;20167;-84
2023/08/26 00:50:17;;;;;;;0.20;0.20;;;14.90;99.90;;;;;;4117017;28;20731;-83
2023/08/26 00:52:17;;;;;;;1.77;0.50;;;14.80;99.90;;;;;;4101661;28;20219;-84
2023/08/26 00:54:18;;;;;;;10.95;0.40;;;14.80;99.90;;;;;;4117641;28;20174;-84
2023/08/26 00:56:20;;;;;;;0.40;0.35;;;14.80;99.90;;;;;;4101784;29;20179;-84
2023/08/26 00:58:21;;;;;;;1.63;0.50;;;14.90;99.90;;;;;;4133757;28;20660;-84
2023/08/26 01:00:22;;;;;;;0.63;0.38;;;14.80;99.90;;;;;;4133817;28;20174;-84
2023/08/26 01:02:23;;;;;;;0.82;0.25;;;14.90;99.90;;;;;;4117685;28;20280;-84
2023/08/26 01:04:25;;;;;;;0.35;0.10;;;14.90;99.90;;;;;;4117777;28;20178;-83
2023/08/26 01:06:27;;;;;;;0.32;0.20;;;14.80;99.90;;;;;;4117670;28;20545;-84
2023/08/26 01:08:28;;;;;;;0.77;0.32;;;14.70;99.90;;;;;;4117699;28;20178;-83
2023/08/26 01:11:08;;;;;;;1.10;0.40;;;14.90;99.90;;;;;;4133823;28;20174;-84
2023/08/26 01:13:14;;;;;;;0.52;0.30;;;14.90;99.90;;;;;;4113661;28;20225;-84
2023/08/26 01:15:15;;;;;;;0.35;0.20;;;14.80;99.90;;;;;;4117480;28;20171;-84
2023/08/26 01:17:18;;;;;;;0.52;0.30;;;14.70;99.90;;;;;;4117378;28;20268;-84
2023/08/26 01:19:39;;;;;;;0.65;0.55;;;14.70;99.90;;;;;;4117279;28;20707;-84
2023/08/26 01:21:44;;;;;;;1.50;0.90;;;14.80;99.90;;;;;;4117193;28;20226;-83
2023/08/26 01:23:46;;;;;;;0.28;0.20;;;14.80;99.90;;;;;;4117186;28;20162;-84
2023/08/26 01:25:48;;;;;;;4.28;0.30;;;14.60;99.90;;;;;;4117027;28;20182;-84
2023/08/26 01:27:49;;;;;;;3.20;0.30;;;14.60;99.90;;;;;;4117340;28;20179;-84
2023/08/26 01:29:49;;;;;;;6.07;0.60;;;14.60;99.90;;;;;;4133387;28;20209;-83
2023/08/26 01:32:04;;;;;;;0.60;0.30;;;14.70;99.90;;;;;;4117130;28;20217;-84
2023/08/26 01:34:20;;;;;;;0.55;0.55;;;14.80;99.90;;;;;;4133303;28;20276;-84
2023/08/26 01:36:24;;;;;;;0.75;0.38;;;14.80;99.90;;;;;;4117240;28;20263;-84
2023/08/26 01:38:25;;;;;;;1.75;0.47;;;14.80;99.90;;;;;;4117285;28;20178;-83
2023/08/26 01:40:28;;;;;;;2.50;0.73;;;14.80;99.90;;;;;;4117384;28;20185;-84
2023/08/26 01:42:30;;;;;;;0.60;0.30;;;14.90;99.90;;;;;;4116885;28;20198;-84
2023/08/26 01:44:31;;;;;;;1.30;0.50;;;15.00;99.90;;;;;;4116991;28;20711;-84
2023/08/26 01:46:38;;;;;;;6.15;0.90;;;15.10;99.90;;;;;;4118219;28;20182;-84
2023/08/26 01:48:39;;;;;;;0.40;0.15;;;15.10;99.90;;;;;;4116881;28;20268;-84
2023/08/26 01:50:40;;;;;;;0.40;0.20;;;15.10;99.90;;;;;;4132797;28;20221;-84
2023/08/26 01:52:41;;;;;;;0.20;0.20;;;15.20;99.90;;;;;;4116986;28;20249;-84
2023/08/26 01:54:42;;;;;;;0.63;0.30;;;15.10;99.90;;;;;;4100810;28;20178;-84
2023/08/26 01:56:43;;;;;;;0.25;0.20;;;15.20;99.90;;;;;;4116765;28;20181;-83
2023/08/26 01:58:45;;;;;;;0.30;0.20;;;15.20;99.90;;;;;;4116781;28;20177;-83
2023/08/26 02:00:46;;;;;;;1.08;0.30;;;15.20;99.90;;;;;;4100379;28;20179;-84
2023/08/26 02:02:47;;;;;;;0.52;0.47;;;15.30;99.90;;;;;;4132785;28;20236;-84
2023/08/26 02:04:47;;;;;;;0.60;0.40;;;15.30;99.90;;;;;;4100862;29;20179;-84
2023/08/26 02:06:48;;;;;;;2.85;0.22;;;15.30;99.90;;;;;;4116769;28;20181;-84
2023/08/26 02:08:50;;;;;;;4.43;0.93;;;15.20;99.90;;;;;;4132837;28;20209;-83
2023/08/26 02:10:55;;;;;;;0.20;0.10;;;15.20;99.90;;;;;;4116629;28;20696;-84
2023/08/26 02:12:55;;;;;;;1.58;0.40;;;15.20;99.90;;;;;;4116648;28;20184;-84
2023/08/26 02:14:56;;;;;;;0.82;0.22;;;15.20;99.90;;;;;;4132554;28;20201;-84
2023/08/26 02:16:57;;;;;;;0.35;0.20;;;15.20;99.90;;;;;;4116405;28;20193;-83
2023/08/26 02:18:58;;;;;;;0.30;0.30;;;15.20;99.90;;;;;;4132433;28;20207;-84
2023/08/26 02:20:58;;;;;;;0.45;0.30;;;15.30;99.90;;;;;;4116556;28;20261;-84
2023/08/26 02:22:59;;;;;;;0.47;0.28;;;15.10;99.90;;;;;;4116346;28;20210;-84
2023/08/26 02:25:00;;;;;;;0.30;0.20;;;15.10;99.90;;;;;;4116576;28;20185;-84
2023/08/26 02:27:00;;;;;;;0.40;0.30;;;15.00;99.90;;;;;;4116389;28;20170;-84
2023/08/26 02:29:02;;;;;;;0.85;0.40;;;14.90;99.90;;;;;;4117464;28;20178;-83
2023/08/26 02:31:03;;;;;;;0.50;0.50;;;14.60;99.90;;;;;;4116068;28;20210;-84
2023/08/26 02:33:06;;;;;;;0.85;0.55;;;14.60;99.90;;;;;;4117460;28;20265;-84
2023/08/26 02:35:07;;;;;;;0.93;0.40;;;14.70;99.90;;;;;;4116212;28;20257;-84
2023/08/26 02:37:08;;;;;;;0.50;0.30;;;14.70;99.90;;;;;;4116168;28;20185;-83
2023/08/26 02:39:10;;;;;;;7.45;1.00;;;14.70;99.90;;;;;;4132365;28;20791;-84
2023/08/26 02:41:11;;;;;;;13.02;0.52;;;14.70;99.90;;;;;;4115987;28;20245;-84
2023/08/26 02:43:11;;;;;;;0.73;0.30;;;14.70;99.90;;;;;;4116155;28;20192;-84
2023/08/26 02:45:12;;;;;;;0.50;0.20;;;14.70;99.90;;;;;;4132239;28;20177;-84
2023/08/26 02:47:13;;;;;;;0.50;0.30;;;14.80;99.90;;;;;;4100351;28;20171;-83
2023/08/26 02:49:13;;;;;;;0.80;0.32;;;14.90;99.90;;;;;;4132453;28;20640;-83
2023/08/26 02:51:14;;;;;;;0.88;0.50;;;14.80;99.90;;;;;;4115794;28;20217;-84
2023/08/26 02:53:15;;;;;;;0.68;0.30;;;14.80;99.90;;;;;;4115925;28;20174;-84
2023/08/26 02:55:16;;;;;;;0.88;0.40;;;14.80;99.90;;;;;;4115715;28;20329;-84
2023/08/26 02:57:17;;;;;;;1.67;0.60;;;14.80;99.90;;;;;;4116017;28;20173;-84
2023/08/26 02:59:18;;;;;;;0.68;0.30;;;14.60;99.90;;;;;;4132158;28;20545;-84
2023/08/26 03:01:19;;;;;;;0.43;0.43;;;14.70;99.90;;;;;;4100040;28;20202;-84
2023/08/26 03:03:20;;;;;;;2.10;0.50;;;14.70;99.90;;;;;;4116178;28;20182;-84
2023/08/26 03:05:21;;;;;;;7.03;0.77;;;14.80;99.90;;;;;;4116034;28;20227;-84
2023/08/26 03:07:22;;;;;;;0.35;0.25;;;14.70;99.90;;;;;;4131761;28;20197;-84
2023/08/26 03:09:25;;;;;;;0.28;0.15;;;14.80;99.90;;;;;;4099812;28;20179;-83
2023/08/26 03:11:26;;;;;;;6.22;0.95;;;14.90;99.90;;;;;;4131277;28;20206;-83
2023/08/26 03:13:27;;;;;;;0.80;0.22;;;14.90;99.90;;;;;;4115571;28;20205;-83
2023/08/26 03:15:28;;;;;;;0.38;0.25;;;14.80;99.90;;;;;;4115889;28;20166;-83
2023/08/26 03:17:29;;;;;;;1.00;0.50;;;14.80;99.90;;;;;;4115868;28;20181;-84
2023/08/26 03:19:31;;;;;;;2.15;0.20;;;14.70;99.90;;;;;;4131911;28;20177;-84
2023/08/26 03:21:32;;;;;;;2.00;0.30;;;14.70;99.90;;;;;;4116760;28;20189;-84
2023/08/26 03:23:34;;;;;;;1.35;0.47;;;14.70;99.90;;;;;;4115605;28;20182;-83
2023/08/26 03:25:38;;;;;;;0.20;0.20;;;14.70;99.90;;;;;;4115620;28;20166;-84
2023/08/26 03:27:39;;;;;;;0.40;0.30;;;14.80;99.90;;;;;;4116845;28;20182;-84
2023/08/26 03:29:40;;;;;;;4.05;0.50;;;14.80;99.90;;;;;;4116851;28;20193;-83
2023/08/26 03:31:43;;;;;;;1.30;0.50;;;14.70;99.90;;;;;;4115377;28;20692;-84
2023/08/26 03:33:45;;;;;;;0.40;0.20;;;14.80;99.90;;;;;;4131682;28;20174;-84
2023/08/26 03:35:46;;;;;;;1.10;0.32;;;14.80;99.90;;;;;;4115429;28;20174;-83
2023/08/26 03:37:47;;;;;;;0.25;0.22;;;14.90;99.90;;;;;;4131560;28;20177;-84
2023/08/26 03:39:48;;;;;;;0.32;0.30;;;14.80;99.90;;;;;;4099297;29;20182;-84
2023/08/26 03:41:48;;;;;;;1.00;0.40;;;14.90;99.90;;;;;;4116292;28;20189;-84
2023/08/26 03:43:49;;;;;;;1.13;0.30;;;14.80;99.90;;;;;;4131312;28;20177;-84
2023/08/26 03:45:50;;;;;;;0.30;0.20;;;14.90;99.90;;;;;;4115456;28;20177;-84
2023/08/26 03:47:51;;;;;;;0.52;0.28;;;14.90;99.90;;;;;;4131284;28;20169;-83
2023/08/26 03:49:52;;;;;;;0.73;0.40;;;15.00;99.90;;;;;;4115141;28;20170;-84
2023/08/26 03:51:52;;;;;;;0.50;0.20;;;14.90;99.90;;;;;;4114899;28;20210;-83
2023/08/26 03:53:53;;;;;;;0.88;0.43;;;14.90;99.90;;;;;;4130971;28;20180;-83
2023/08/26 03:55:54;;;;;;;1.92;0.30;;;14.90;99.90;;;;;;4114818;28;20190;-84
2023/08/26 03:57:55;;;;;;;1.50;0.60;;;14.90;99.90;;;;;;4099309;29;20237;-84
2023/08/26 03:59:55;;;;;;;1.23;0.50;;;15.00;99.90;;;;;;4131250;28;20181;-84
2023/08/26 04:01:57;;;;;;;0.68;0.35;;;14.90;99.90;;;;;;4115251;28;20600;-84
2023/08/26 04:03:58;;;;;;;0.15;0.13;;;14.80;99.90;;;;;;4115210;28;20214;-83
2023/08/26 04:06:04;;;;;;;0.20;0.10;;;14.70;99.90;;;;;;4115272;28;20174;-84
2023/08/26 04:08:05;;;;;;;1.13;0.40;;;14.70;99.90;;;;;;4131016;28;20188;-84
2023/08/26 04:10:07;;;;;;;0.88;0.32;;;14.80;99.90;;;;;;4115260;28;20182;-84
2023/08/26 04:12:07;;;;;;;0.40;0.25;;;14.70;99.90;;;;;;4114468;28;20228;-84
2023/08/26 04:14:08;;;;;;;0.43;0.25;;;14.70;99.90;;;;;;4131253;28;20194;-84
2023/08/26 04:16:09;;;;;;;1.00;0.25;;;14.70;99.90;;;;;;4115192;28;20247;-84
2023/08/26 04:18:10;;;;;;;4.07;0.50;;;14.70;99.90;;;;;;4115056;28;20201;-83
2023/08/26 04:20:11;;;;;;;0.30;0.30;;;14.60;99.90;;;;;;4115268;28;20629;-83
2023/08/26 04:22:12;;;;;;;0.57;0.30;;;14.60;99.90;;;;;;4130902;28;20189;-84
2023/08/26 04:24:13;;;;;;;3.72;0.63;;;14.60;99.90;;;;;;4117123;28;20648;-84
2023/08/26 04:26:14;;;;;;;0.57;0.30;;;14.70;99.90;;;;;;4118184;28;20174;-84
2023/08/26 04:28:15;;;;;;;0.45;0.30;;;14.60;99.90;;;;;;4119522;28;20174;-84
2023/08/26 04:30:17;;;;;;;2.63;0.55;;;14.50;99.90;;;;;;4119365;28;20166;-84
2023/08/26 04:32:18;;;;;;;0.85;0.10;;;14.40;99.90;;;;;;4134182;28;20623;-84
2023/08/26 04:34:19;;;;;;;0.20;0.20;;;14.30;99.90;;;;;;4134180;28;20173;-83
2023/08/26 04:36:21;;;;;;;0.52;0.30;;;14.30;99.90;;;;;;4102240;28;20181;-84
2023/08/26 04:38:22;;;;;;;3.00;0.73;;;14.30;99.90;;;;;;4118055;28;20257;-83
2023/08/26 04:40:22;;;;;;;0.85;0.40;;;14.40;99.90;;;;;;4118063;28;20166;-85
2023/08/26 04:42:23;;;;;;;2.92;0.20;;;14.30;99.90;;;;;;4133937;28;20200;-84
2023/08/26 04:44:24;;;;;;;0.55;0.30;;;14.30;99.90;;;;;;4118119;28;20171;-84
2023/08/26 04:46:25;;;;;;;0.47;0.20;;;14.30;99.90;;;;;;4117889;28;20218;-84
2023/08/26 04:48:28;;;;;;;1.58;0.57;;;14.40;99.90;;;;;;4118200;28;20178;-84
2023/08/26 04:50:29;;;;;;;1.58;0.40;;;14.30;99.90;;;;;;4117884;28;20178;-84
2023/08/26 04:52:30;;;;;;;0.77;0.38;;;14.30;99.90;;;;;;4119155;28;20210;-83
2023/08/26 04:54:31;;;;;;;0.20;0.20;;;14.40;99.90;;;;;;4117768;28;20232;-83
2023/08/26 04:56:32;;;;;;;2.15;0.50;;;14.40;99.90;;;;;;4117729;28;20272;-84
2023/08/26 04:58:33;;;;;;;0.28;0.20;;;14.50;99.90;;;;;;4117801;28;20201;-83
2023/08/26 05:00:33;;;;;;;0.25;0.22;;;14.60;99.90;;;;;;4117730;28;20175;-83
2023/08/26 05:02:34;;;;;;;2.80;0.28;;;14.60;99.90;;;;;;4117576;28;20189;-84
2023/08/26 05:04:36;;;;;;;1.05;0.50;;;14.60;99.90;;;;;;4133910;28;20177;-83
2023/08/26 05:06:37;;;;;;;0.60;0.30;;;14.60;99.90;;;;;;4117725;28;20556;-84
2023/08/26 05:08:37;;;;;;;0.30;0.17;;;14.60;99.90;;;;;;4101550;28;20171;-84
2023/08/26 05:10:39;;;;;;;0.88;0.10;;;14.70;99.90;;;;;;4133518;28;20591;-84
2023/08/26 05:12:40;;;;;;;0.75;0.63;;;14.90;99.90;;;;;;4117266;28;20221;-84
2023/08/26 05:14:41;;;;;;;1.65;0.40;;;14.90;99.90;;;;;;4117551;28;20167;-84
2023/08/26 05:16:42;;;;;;;0.43;0.30;;;14.90;99.90;;;;;;4117405;28;20572;-84
2023/08/26 05:18:42;;;;;;;2.80;0.45;;;14.90;99.90;;;;;;4101743;28;20699;-84
2023/08/26 05:20:46;;;;;;;0.52;0.30;;;14.80;99.90;;;;;;4133452;28;20531;-84
2023/08/26 05:22:47;;;;;;;0.20;0.17;;;14.80;99.90;;;;;;4117326;28;20274;-84
2023/08/26 05:24:48;;;;;;;1.55;0.57;;;14.90;99.90;;;;;;4117470;28;20197;-84
2023/08/26 05:26:50;;;;;;;0.30;0.20;;;14.90;99.90;;;;;;4133411;28;20229;-85
2023/08/26 05:28:50;;;;;;;0.73;0.30;;;15.00;99.90;;;;;;4101353;28;20589;-84
2023/08/26 05:30:51;;;;;;;0.35;0.20;;;15.00;99.90;;;;;;4133059;28;20563;-84
2023/08/26 05:32:52;;;;;;;0.50;0.30;;;14.90;99.90;;;;;;4117272;28;20671;-84
2023/08/26 05:34:52;;;;;;;3.13;0.60;;;14.80;99.90;;;;;;4117507;28;20325;-84
2023/08/26 05:36:53;;;;;;;2.88;0.50;;;14.80;99.90;;;;;;4133181;28;20209;-84
2023/08/26 05:38:54;;;;;;;0.95;0.52;;;14.90;99.90;;;;;;4101021;29;20179;-84
2023/08/26 05:40:55;;;;;;;1.85;0.50;;;15.00;99.90;;;;;;4116860;28;20237;-83
2023/08/26 05:42:57;;;;;;;0.30;0.20;;;15.00;99.90;;;;;;4133163;28;20316;-84
2023/08/26 05:44:58;;;;;;;0.85;0.30;;;15.10;99.90;;;;;;4133286;28;20170;-84
2023/08/26 05:46:59;;;;;;;1.52;0.40;;;15.20;99.90;;;;;;4116908;28;20181;-84
2023/08/26 05:49:00;;;;;;;0.82;0.30;;;15.20;99.90;;;;;;4116975;28;20190;-83
2023/08/26 05:51:00;;;;;;;0.80;0.20;;;15.10;99.90;;;;;;4116757;28;20815;-84
2023/08/26 05:53:01;;;;;;;0.80;0.20;;;15.00;99.90;;;;;;4101061;28;20199;-84
2023/08/26 05:55:02;;;;;;;0.68;0.47;;;15.00;99.90;;;;;;4117626;28;20336;-84
2023/08/26 05:57:03;;;;;;;1.33;0.60;;;15.00;99.90;;;;;;4116990;28;20182;-84
2023/08/26 05:59:04;;;;;;;1.05;0.35;;;15.10;99.90;;;;;;4132901;28;20635;-84
2023/08/26 06:01:05;;;;;;;0.20;0.20;;;15.00;99.90;;;;;;4100618;28;20234;-84
2023/08/26 06:03:06;;;;;;;1.42;0.63;;;15.20;99.90;;;;;;4116810;28;20261;-84
2023/08/26 06:05:06;;;;;;;0.38;0.30;;;15.30;99.90;;;;;;4100639;29;20225;-83
2023/08/26 06:07:07;;;;;;;0.40;0.30;;;15.40;99.90;;;;;;4116449;28;20213;-84
2023/08/26 06:09:09;;;;;;;0.47;0.30;;;15.50;99.90;;;;;;4116488;28;20225;-84
2023/08/26 06:11:09;;;;;;;0.98;0.28;;;15.60;99.90;;;;;;4117507;28;20210;-83
2023/08/26 06:13:10;;;;;;;0.32;0.30;;;15.70;99.90;;;;;;4116597;28;20178;-83
2023/08/26 06:15:12;;;;;;;8.55;1.10;;;15.70;99.90;;;;;;4116584;28;20182;-84
2023/08/26 06:17:13;;;;;;;0.85;0.22;;;15.50;99.90;;;;;;4100699;29;20187;-83
2023/08/26 06:19:13;;;;;;;0.63;0.45;;;15.50;99.90;;;;;;4116684;28;20750;-83
2023/08/26 06:21:15;;;;;;;5.95;0.40;;;15.70;99.90;;;;;;4132601;28;20236;-83
2023/08/26 06:23:16;;;;;;;2.25;0.32;;;15.70;99.90;;;;;;4116352;28;20175;-84
2023/08/26 06:25:19;;;;;;;0.25;0.25;;;15.80;99.90;;;;;;4132618;28;20166;-84
2023/08/26 06:27:23;;;;;;;3.88;0.77;;;15.80;99.90;;;;;;4116594;28;20178;-84
2023/08/26 06:29:25;;;;;;;0.45;0.40;;;16.00;99.90;;;;;;4116456;28;20228;-84
2023/08/26 06:31:26;;;;;;;0.68;0.22;;;16.00;99.90;;;;;;4116327;28;20210;-84
2023/08/26 06:33:29;;;;;;;2.88;0.40;;;16.10;99.90;;;;;;4100339;28;20167;-83
2023/08/26 06:35:29;;;;;;;0.95;0.30;;;16.20;99.90;;;;;;4132361;28;20189;-84
2023/08/26 06:37:31;;;;;;;4.15;0.40;;;16.20;99.90;;;;;;4100236;29;20175;-83
2023/08/26 06:39:31;;;;;;;0.20;0.20;;;16.30;99.90;;;;;;4132198;28;20251;-84
2023/08/26 06:41:33;;;;;;;0.45;0.30;;;16.30;99.90;;;;;;4116083;28;20292;-84
2023/08/26 06:43:34;;;;;;;0.10;0.10;;;16.40;99.90;;;;;;4115949;28;20576;-84
2023/08/26 06:45:37;;;;;;;1.75;0.20;;;16.40;99.90;;;;;;4115961;28;20189;-84
2023/08/26 06:47:40;;;;;;;0.50;0.20;;;16.30;99.90;;;;;;4116366;28;20167;-84
2023/08/26 06:49:40;;;;;;;0.75;0.50;;;16.40;99.90;;;;;;4132342;28;20599;-84
2023/08/26 06:51:41;;;;;;;0.63;0.20;;;16.50;99.90;;;;;;4115889;28;20312;-84
2023/08/26 06:53:42;;;;;;;0.65;0.30;;;16.50;99.90;;;;;;4116069;28;20552;-83
2023/08/26 06:55:42;;;;;;;1.08;0.60;;;16.60;99.90;;;;;;4100099;28;20226;-84
2023/08/26 06:57:44;;;;;;;1.60;0.52;;;16.70;99.90;;;;;;4131852;28;20166;-83
2023/08/26 06:59:44;;;;;;;2.08;0.50;;;16.50;99.90;;;;;;4132063;28;20177;-83
2023/08/26 07:01:45;;;;;;;0.55;0.38;;;16.60;99.90;;;;;;4131893;28;20194;-83
2023/08/26 07:03:46;;;;;;;0.85;0.40;;;16.60;99.90;;;;;;4115724;28;20178;-83
2023/08/26 07:05:47;;;;;;;0.28;0.20;;;16.60;99.90;;;;;;4115799;28;20202;-83
2023/08/26 07:07:47;;;;;;;1.55;0.57;;;16.70;99.90;;;;;;4115677;28;20201;-84
2023/08/26 07:09:48;;;;;;;0.77;0.50;;;16.90;99.90;;;;;;4115763;28;20522;-83
2023/08/26 07:11:49;;;;;;;0.57;0.45;;;17.10;99.90;;;;;;4131821;28;20222;-83
2023/08/26 07:13:49;;;;;;;1.10;0.52;;;17.40;99.90;;;;;;4099846;29;20225;-83
2023/08/26 07:15:50;;;;;;;2.42;0.40;;;17.50;99.90;;;;;;4131910;28;20180;-83
2023/08/26 07:17:52;;;;;;;3.67;0.85;;;17.60;99.90;;;;;;4115808;28;20166;-84
2023/08/26 07:19:53;;;;;;;2.75;0.40;;;17.60;99.90;;;;;;4099711;29;20258;-84
2023/08/26 07:21:53;;;;;;;1.05;0.50;;;17.60;99.90;;;;;;4116664;28;20548;-83
2023/08/26 07:23:54;;;;;;;0.57;0.25;;;17.60;99.90;;;;;;4115630;28;20249;-84
2023/08/26 07:25:55;;;;;;;1.20;0.10;;;17.50;99.90;;;;;;4115495;28;20265;-83
2023/08/26 07:27:56;;;;;;;0.40;0.20;;;17.70;99.90;;;;;;4115502;28;20385;-84
2023/08/26 07:29:57;;;;;;;0.50;0.47;;;17.80;99.90;;;;;;4131630;28;20181;-84
2023/08/26 07:31:57;;;;;;;0.98;0.30;;;17.80;99.90;;;;;;4115443;28;20209;-84
2023/08/26 07:33:58;;;;;;;0.35;0.25;;;18.10;99.90;;;;;;4131512;28;20261;-84
2023/08/26 07:36:04;;;;;;;6.60;1.10;;;19.10;99.90;;;;;;4115376;28;20178;-84
2023/08/26 07:38:05;;;;;;;0.77;0.30;;;20.50;99.90;;;;;;4115507;28;20273;-83
2023/08/26 07:40:13;;;;;;;0.88;0.20;;;21.50;99.90;;;;;;4115593;28;20576;-84
2023/08/26 07:42:13;;;;;;;0.68;0.25;;;22.10;99.90;;;;;;4115246;28;20201;-85
2023/08/26 07:44:14;;;;;;;0.65;0.20;;;22.30;99.90;;;;;;4115135;28;20175;-89
2023/08/26 07:46:18;;;;;;;1.27;0.40;;;23.10;99.90;;;;;;4115352;28;20668;-84
2023/08/26 07:48:19;;;;;;;0.52;0.32;;;23.30;99.90;;;;;;4115106;28;20584;-84
2023/08/26 07:50:20;;;;;;;0.85;0.10;;;23.40;99.90;;;;;;4114989;28;20178;-84
2023/08/26 07:52:20;;;;;;;0.45;0.30;;;23.20;99.90;;;;;;4098959;28;20206;-85
2023/08/26 07:54:21;;;;;;;3.60;0.30;;;23.30;99.90;;;;;;4131377;28;20173;-85
2023/08/26 07:56:22;;;;;;;1.85;0.52;;;23.60;99.90;;;;;;4115183;28;20230;-85
2023/08/26 07:58:23;;;;;;;0.47;0.22;;;24.00;99.90;;;;;;4130833;28;20265;-85
2023/08/26 08:00:23;;;;;;;0.73;0.30;;;24.90;99.90;;;;;;4099174;29;20529;-84
2023/08/26 08:02:24;;;;;;;2.70;0.20;;;24.70;99.90;;;;;;4115047;28;20248;-85
2023/08/26 08:04:25;;;;;;;0.75;0.20;;;24.90;99.90;;;;;;4115222;28;20174;-85
2023/08/26 08:06:25;;;;;;;0.43;0.20;;;25.70;99.90;;;;;;4114987;28;20184;-84
2023/08/26 08:08:26;;;;;;;2.30;0.63;;;26.00;99.90;;;;;;4116163;28;20518;-82
2023/08/26 08:10:27;;;;;;;0.82;0.20;;;25.70;99.90;;;;;;4114960;28;20174;-82
2023/08/26 08:12:27;;;;;;;0.20;0.20;;;25.40;99.90;;;;;;4114641;28;20206;-82
2023/08/26 08:14:28;;;;;;;0.68;0.40;;;25.00;99.90;;;;;;4116489;28;20166;-85
2023/08/26 08:16:29;;;;;;;1.48;0.40;;;24.80;99.90;;;;;;4130979;28;20394;-85
2023/08/26 08:18:30;;;;;;;1.75;0.50;;;25.60;99.90;;;;;;4115069;28;20229;-82
2023/08/26 08:20:30;;;;;;;1.17;0.20;;;25.70;99.90;;;;;;4130958;28;20188;-82
2023/08/26 08:22:41;;;;;;;0.20;0.17;;;26.10;99.90;;;;;;4114893;28;20758;-82
2023/08/26 08:24:42;;;;;;;0.28;0.20;;;26.30;99.90;;;;;;4114934;28;20264;-82
2023/08/26 08:26:46;;;;;;;0.70;0.40;;;26.60;99.90;;;;;;4114809;28;20197;-82
2023/08/26 08:28:46;;;;;;;0.52;0.10;;;25.90;99.90;;;;;;4114842;28;20178;-82
2023/08/26 08:30:47;;;;;;;0.70;0.28;;;25.70;99.90;;;;;;4115051;28;20265;-82
2023/08/26 08:32:48;;;;;;;0.30;0.20;;;25.30;99.90;;;;;;4130760;28;20255;-85
2023/08/26 08:34:49;;;;;;;0.80;0.30;;;25.10;99.90;;;;;;4114733;28;20170;-84
2023/08/26 08:36:49;;;;;;;4.47;0.88;;;24.40;99.90;;;;;;4098490;28;20177;-88
2023/08/26 08:38:50;;;;;;;0.60;0.20;;;24.10;99.90;;;;;;4114680;28;20178;-84
2023/08/26 08:40:51;;;;;;;0.30;0.20;;;24.10;99.90;;;;;;4098857;28;20616;-86
2023/08/26 08:42:54;;;;;;;1.00;0.30;;;24.60;99.90;;;;;;4115294;28;20273;-86
2023/08/26 08:44:56;;;;;;;0.75;0.22;;;24.90;99.90;;;;;;4131436;28;20188;-87
2023/08/26 08:46:56;;;;;;;0.93;0.43;;;24.70;99.90;;;;;;4114924;28;20167;-88
2023/08/26 08:48:58;;;;;;;0.40;0.20;;;24.00;99.90;;;;;;4115290;28;20695;-85
2023/08/26 08:50:59;;;;;;;0.32;0.20;;;24.40;99.90;;;;;;4114849;28;20194;-88
2023/08/26 08:53:02;;;;;;;1.33;0.30;;;24.50;99.90;;;;;;4099112;28;20187;-87
2023/08/26 08:55:05;;;;;;;0.52;0.20;;;25.00;99.90;;;;;;4115045;28;20178;-85
2023/08/26 08:57:10;;;;;;;1.95;0.40;;;24.30;99.90;;;;;;4130900;28;20177;-88
2023/08/26 08:59:12;;;;;;;1.05;0.20;;;24.10;99.90;;;;;;4115039;28;20683;-87
2023/08/26 09:01:15;;;;;;;1.00;0.40;;;23.70;99.90;;;;;;4114352;28;20183;-85
2023/08/26 09:03:17;;;;;;;1.73;0.60;;;23.50;99.90;;;;;;4130873;28;20181;-84
2023/08/26 09:05:19;;;;;;;19.00;1.27;;;23.20;99.90;;;;;;4114634;28;20245;-84
2023/08/26 09:07:21;;;;;;;0.40;0.20;;;22.70;99.90;;;;;;4114769;28;20182;-84
2023/08/26 09:09:22;;;;;;;0.70;0.40;;;23.10;99.90;;;;;;4114669;28;20269;-85
2023/08/26 09:11:23;;;;;;;0.10;0.10;;;23.20;99.90;;;;;;4116827;28;20623;-87
2023/08/26 09:13:24;;;;;;;0.35;0.28;;;23.10;99.90;;;;;;4117327;28;20179;-87
2023/08/26 09:15:26;;;;;;;0.50;0.20;;;22.90;99.90;;;;;;4117694;28;20170;-85
2023/08/26 09:17:28;;;;;;;2.00;0.40;;;22.90;99.90;;;;;;4118627;28;20170;-87
2023/08/26 09:19:29;;;;;;;0.20;0.20;;;23.20;99.90;;;;;;4118757;28;20206;-86
2023/08/26 09:21:30;;;;;;;0.43;0.20;;;23.60;99.90;;;;;;4117129;28;20579;-87
2023/08/26 09:23:43;;;;;;;0.40;0.30;;;23.80;99.90;;;;;;4117056;28;20175;-87
2023/08/26 09:25:57;;;;;;;2.08;0.32;;;23.80;99.90;;;;;;4118161;28;20174;-85
2023/08/26 09:27:58;;;;;;;0.15;0.10;;;23.70;99.90;;;;;;4117169;28;20178;-85
2023/08/26 09:30:00;;;;;;;0.60;0.30;;;23.90;99.90;;;;;;4117173;28;20253;-87
2023/08/26 09:32:01;;;;;;;0.65;0.40;;;24.10;99.90;;;;;;4117144;28;20561;-85
2023/08/26 09:34:03;;;;;;;0.52;0.30;;;24.50;99.90;;;;;;4118429;28;20170;-85
2023/08/26 09:36:04;;;;;;;0.68;0.30;;;24.30;99.90;;;;;;4117083;28;20190;-85
2023/08/26 09:38:08;;;;;;;0.20;0.20;;;24.20;99.90;;;;;;4117091;28;20229;-87
2023/08/26 09:40:16;;;;;;;1.52;0.38;;;24.10;99.90;;;;;;4116398;28;20170;-86
2023/08/26 09:42:17;;;;;;;2.90;0.43;;;23.50;99.90;;;;;;4116392;28;20260;-86
2023/08/26 09:44:21;;;;;;;0.90;0.30;;;23.20;99.90;;;;;;4133331;28;20158;-85
2023/08/26 09:46:21;;;;;;;0.68;0.50;;;23.30;99.90;;;;;;4117220;28;20182;-85
2023/08/26 09:48:23;;;;;;;4.25;0.40;;;23.50;99.90;;;;;;4117009;28;20216;-85
2023/08/26 09:50:31;;;;;;;1.27;0.50;;;23.30;99.90;;;;;;4117134;28;20708;-86
2023/08/26 09:52:48;;;;;;;0.30;0.20;;;23.70;99.90;;;;;;4132609;28;20299;-85
2023/08/26 09:54:51;;;;;;;0.60;0.20;;;23.80;99.90;;;;;;4116791;28;20217;-84
2023/08/26 09:56:52;;;;;;;0.68;0.38;;;23.30;99.90;;;;;;4132953;28;20180;-87
2023/08/26 09:58:55;;;;;;;0.90;0.40;;;23.10;99.90;;;;;;4118436;28;20171;-85
2023/08/26 10:00:57;;;;;;;0.52;0.30;;;22.70;99.90;;;;;;4118019;28;20181;-90
2023/08/26 10:03:03;;;;;;;2.05;0.30;;;22.50;99.90;;;;;;4116721;28;20178;-86
2023/08/26 10:05:09;;;;;;;1.13;0.38;;;22.30;99.90;;;;;;4117097;28;20597;-90
2023/08/26 10:07:11;;;;;;;0.75;0.20;;;22.20;99.90;;;;;;4117006;28;20201;-89
2023/08/26 10:09:32;;;;;;;0.68;0.20;;;21.90;99.90;;;;;;4117318;28;20170;-85
2023/08/26 10:11:37;;;;;;;0.40;0.28;;;21.50;99.90;;;;;;4117878;28;20583;-84
2023/08/26 10:13:40;;;;;;;1.48;0.28;;;21.60;99.90;;;;;;4133141;28;20634;-89
2023/08/26 10:15:42;;;;;;;0.22;0.10;;;21.90;99.90;;;;;;4116793;28;20186;-89
2023/08/26 10:17:49;;;;;;;0.15;0.13;;;22.00;99.90;;;;;;4117204;28;20158;-83
2023/08/26 10:19:51;;;;;;;2.53;0.65;;;21.90;99.90;;;;;;4133259;28;20178;-88
2023/08/26 10:21:53;;;;;;;0.28;0.22;;;22.00;99.90;;;;;;4116403;28;20198;-85
2023/08/26 10:23:55;;;;;;;2.05;0.10;;;21.80;99.90;;;;;;4116624;28;20182;-85
2023/08/26 10:25:56;;;;;;;1.25;0.28;;;21.60;99.90;;;;;;4116894;28;20269;-87
2023/08/26 10:27:58;;;;;;;0.80;0.22;;;22.00;99.90;;;;;;4132557;28;20189;-89
2023/08/26 10:30:00;;;;;;;0.88;0.30;;;22.20;99.90;;;;;;4116743;28;20209;-89
2023/08/26 10:32:20;;;;;;;0.20;0.20;;;22.30;99.90;;;;;;4116734;28;20225;-89
2023/08/26 10:34:30;;;;;;;0.10;0.10;;;22.10;99.90;;;;;;4132787;28;20177;-85